sensor_id;sensor_type;location;lat;lon;timestamp;P1;durP1;ratioP1;P2;durP2;ratioP2
14167;SDS011;7163;50.626;12.922;2024-03-25T00:21:39;10.27;;;6.23;;
14167;SDS011;7163;50.626;12.922;2024-03-25T00:26:39;14.73;;;7.03;;
14167;SDS011;7163;50.626;12.922;2024-03-25T00:31:57;10.90;;;6.30;;
14167;SDS011;7163;50.626;12.922;2024-03-25T00:37:07;11.90;;;6.63;;
14167;SDS011;7163;50.626;12.922;2024-03-25T00:42:13;10.87;;;7.00;;
14167;SDS011;7163;50.626;12.922;2024-03-25T00:53:32;11.53;;;6.30;;
14167;SDS011;7163;50.626;12.922;2024-03-25T02:33:30;11.80;;;6.80;;
14167;SDS011;7163;50.626;12.922;2024-03-25T03:40:32;7.50;;;4.70;;
14167;SDS011;7163;50.626;12.922;2024-03-25T03:45:35;11.47;;;5.40;;
14167;SDS011;7163;50.626;12.922;2024-03-25T03:50:35;10.23;;;5.67;;
14167;SDS011;7163;50.626;12.922;2024-03-25T05:13:07;17.93;;;5.63;;
14167;SDS011;7163;50.626;12.922;2024-03-25T06:58:25;17.67;;;7.70;;
14167;SDS011;7163;50.626;12.922;2024-03-25T07:04:17;16.93;;;7.90;;
14167;SDS011;7163;50.626;12.922;2024-03-25T07:09:42;16.40;;;8.00;;
14167;SDS011;7163;50.626;12.922;2024-03-25T08:40:17;14.93;;;6.97;;
14167;SDS011;7163;50.626;12.922;2024-03-25T08:45:20;10.77;;;6.40;;
14167;SDS011;7163;50.626;12.922;2024-03-25T08:50:20;13.77;;;6.77;;
14167;SDS011;7163;50.626;12.922;2024-03-25T09:10:50;12.77;;;6.43;;
14167;SDS011;7163;50.626;12.922;2024-03-25T09:16:03;16.07;;;6.03;;
14167;SDS011;7163;50.626;12.922;2024-03-25T09:21:03;13.37;;;6.53;;
14167;SDS011;7163;50.626;12.922;2024-03-25T09:26:05;12.83;;;5.43;;
14167;SDS011;7163;50.626;12.922;2024-03-25T09:47:12;17.53;;;8.47;;
14167;SDS011;7163;50.626;12.922;2024-03-25T09:52:27;6.20;;;4.53;;
14167;SDS011;7163;50.626;12.922;2024-03-25T10:46:09;4.47;;;2.90;;
14167;SDS011;7163;50.626;12.922;2024-03-25T10:51:09;6.70;;;3.70;;
14167;SDS011;7163;50.626;12.922;2024-03-25T10:56:10;7.27;;;3.40;;
14167;SDS011;7163;50.626;12.922;2024-03-25T12:08:23;3.20;;;2.17;;
14167;SDS011;7163;50.626;12.922;2024-03-25T12:13:28;3.13;;;2.20;;
14167;SDS011;7163;50.626;12.922;2024-03-25T12:18:28;11.83;;;4.53;;
14167;SDS011;7163;50.626;12.922;2024-03-25T12:23:30;4.63;;;2.33;;
14167;SDS011;7163;50.626;12.922;2024-03-25T12:28:33;5.70;;;2.60;;
14167;SDS011;7163;50.626;12.922;2024-03-25T12:33:40;4.70;;;2.43;;
14167;SDS011;7163;50.626;12.922;2024-03-25T12:38:40;2.63;;;1.80;;
14167;SDS011;7163;50.626;12.922;2024-03-25T12:43:44;2.50;;;2.03;;
14167;SDS011;7163;50.626;12.922;2024-03-25T12:48:44;4.13;;;2.77;;
14167;SDS011;7163;50.626;12.922;2024-03-25T12:53:45;3.97;;;2.40;;
14167;SDS011;7163;50.626;12.922;2024-03-25T12:58:45;2.92;;;2.17;;
14167;SDS011;7163;50.626;12.922;2024-03-25T13:03:46;5.32;;;3.20;;
14167;SDS011;7163;50.626;12.922;2024-03-25T13:08:46;16.40;;;5.97;;
14167;SDS011;7163;50.626;12.922;2024-03-25T13:13:46;6.47;;;3.22;;
14167;SDS011;7163;50.626;12.922;2024-03-25T14:31:08;6.72;;;3.22;;
14167;SDS011;7163;50.626;12.922;2024-03-25T14:36:08;2.80;;;2.17;;
14167;SDS011;7163;50.626;12.922;2024-03-25T15:48:19;4.57;;;2.58;;
14167;SDS011;7163;50.626;12.922;2024-03-25T15:53:22;8.43;;;3.63;;
14167;SDS011;7163;50.626;12.922;2024-03-25T15:58:24;4.43;;;2.88;;
14167;SDS011;7163;50.626;12.922;2024-03-25T16:03:25;4.32;;;1.95;;
14167;SDS011;7163;50.626;12.922;2024-03-25T16:08:25;6.45;;;3.40;;
14167;SDS011;7163;50.626;12.922;2024-03-25T16:13:25;4.32;;;2.42;;
14167;SDS011;7163;50.626;12.922;2024-03-25T16:18:26;5.18;;;3.33;;
14167;SDS011;7163;50.626;12.922;2024-03-25T16:23:27;3.20;;;2.30;;
14167;SDS011;7163;50.626;12.922;2024-03-25T16:28:27;116.65;;;57.33;;
14167;SDS011;7163;50.626;12.922;2024-03-25T16:33:27;166.80;;;78.23;;
14167;SDS011;7163;50.626;12.922;2024-03-25T16:38:27;49.43;;;24.97;;
14167;SDS011;7163;50.626;12.922;2024-03-25T16:43:28;16.87;;;8.30;;
14167;SDS011;7163;50.626;12.922;2024-03-25T16:48:29;36.33;;;17.73;;
14167;SDS011;7163;50.626;12.922;2024-03-25T16:53:29;15.30;;;6.83;;
14167;SDS011;7163;50.626;12.922;2024-03-25T18:18:31;22.40;;;13.80;;
14167;SDS011;7163;50.626;12.922;2024-03-25T18:23:32;20.30;;;11.87;;
14167;SDS011;7163;50.626;12.922;2024-03-25T18:28:32;31.63;;;13.97;;
14167;SDS011;7163;50.626;12.922;2024-03-25T18:33:33;27.77;;;14.63;;
14167;SDS011;7163;50.626;12.922;2024-03-25T18:38:34;17.50;;;10.17;;
14167;SDS011;7163;50.626;12.922;2024-03-25T18:43:34;25.40;;;14.57;;
14167;SDS011;7163;50.626;12.922;2024-03-25T18:48:35;26.53;;;13.97;;
14167;SDS011;7163;50.626;12.922;2024-03-25T18:53:35;27.70;;;15.30;;
14167;SDS011;7163;50.626;12.922;2024-03-25T18:58:36;25.70;;;14.37;;
14167;SDS011;7163;50.626;12.922;2024-03-25T19:03:36;31.27;;;17.80;;
14167;SDS011;7163;50.626;12.922;2024-03-25T19:08:36;15.93;;;9.20;;
14167;SDS011;7163;50.626;12.922;2024-03-25T19:13:38;14.90;;;9.23;;
14167;SDS011;7163;50.626;12.922;2024-03-25T19:18:39;15.35;;;10.00;;
14167;SDS011;7163;50.626;12.922;2024-03-25T19:23:39;30.17;;;16.40;;
14167;SDS011;7163;50.626;12.922;2024-03-25T19:28:39;27.87;;;15.83;;
14167;SDS011;7163;50.626;12.922;2024-03-25T19:33:40;16.83;;;10.27;;
14167;SDS011;7163;50.626;12.922;2024-03-25T19:38:41;21.53;;;12.87;;
14167;SDS011;7163;50.626;12.922;2024-03-25T19:43:41;24.30;;;15.10;;
14167;SDS011;7163;50.626;12.922;2024-03-25T19:48:41;22.47;;;12.30;;
14167;SDS011;7163;50.626;12.922;2024-03-25T19:53:42;15.82;;;9.10;;
14167;SDS011;7163;50.626;12.922;2024-03-25T19:58:42;13.03;;;7.20;;
14167;SDS011;7163;50.626;12.922;2024-03-25T20:03:42;32.17;;;19.37;;
14167;SDS011;7163;50.626;12.922;2024-03-25T20:08:43;31.97;;;17.80;;
14167;SDS011;7163;50.626;12.922;2024-03-25T20:13:43;31.70;;;19.90;;
14167;SDS011;7163;50.626;12.922;2024-03-25T20:18:44;27.03;;;14.63;;
14167;SDS011;7163;50.626;12.922;2024-03-25T20:23:44;20.53;;;11.27;;
14167;SDS011;7163;50.626;12.922;2024-03-25T20:28:44;24.67;;;13.80;;
14167;SDS011;7163;50.626;12.922;2024-03-25T20:33:45;17.97;;;9.57;;
14167;SDS011;7163;50.626;12.922;2024-03-25T20:38:45;18.87;;;9.70;;
14167;SDS011;7163;50.626;12.922;2024-03-25T20:43:45;17.75;;;8.95;;
14167;SDS011;7163;50.626;12.922;2024-03-25T20:48:46;36.07;;;17.43;;
14167;SDS011;7163;50.626;12.922;2024-03-25T20:53:46;43.40;;;17.63;;
14167;SDS011;7163;50.626;12.922;2024-03-25T20:58:47;32.27;;;15.47;;
14167;SDS011;7163;50.626;12.922;2024-03-25T21:03:47;36.72;;;17.00;;
14167;SDS011;7163;50.626;12.922;2024-03-25T21:08:48;50.67;;;18.60;;
14167;SDS011;7163;50.626;12.922;2024-03-25T21:13:48;37.70;;;17.60;;
14167;SDS011;7163;50.626;12.922;2024-03-25T21:18:48;39.97;;;16.37;;
14167;SDS011;7163;50.626;12.922;2024-03-25T21:23:49;49.87;;;24.17;;
14167;SDS011;7163;50.626;12.922;2024-03-25T21:28:50;45.23;;;18.87;;
14167;SDS011;7163;50.626;12.922;2024-03-25T21:33:51;40.53;;;16.03;;
14167;SDS011;7163;50.626;12.922;2024-03-25T21:38:51;64.47;;;24.07;;
14167;SDS011;7163;50.626;12.922;2024-03-25T21:43:54;68.50;;;28.97;;
14167;SDS011;7163;50.626;12.922;2024-03-25T21:48:55;64.50;;;21.77;;
14167;SDS011;7163;50.626;12.922;2024-03-25T21:53:55;46.93;;;19.13;;
14167;SDS011;7163;50.626;12.922;2024-03-25T21:58:58;32.90;;;15.80;;
14167;SDS011;7163;50.626;12.922;2024-03-25T22:03:58;23.20;;;11.87;;
14167;SDS011;7163;50.626;12.922;2024-03-25T22:08:59;23.83;;;10.93;;
14167;SDS011;7163;50.626;12.922;2024-03-25T22:14:00;26.53;;;12.43;;
14167;SDS011;7163;50.626;12.922;2024-03-25T22:19:00;20.88;;;10.48;;
14167;SDS011;7163;50.626;12.922;2024-03-25T22:24:00;21.83;;;9.70;;
14167;SDS011;7163;50.626;12.922;2024-03-25T22:29:01;24.40;;;11.88;;
14167;SDS011;7163;50.626;12.922;2024-03-25T22:34:01;17.33;;;9.48;;
14167;SDS011;7163;50.626;12.922;2024-03-25T22:39:01;15.18;;;8.65;;
14167;SDS011;7163;50.626;12.922;2024-03-25T22:44:03;13.50;;;7.53;;
14167;SDS011;7163;50.626;12.922;2024-03-25T23:35:20;10.87;;;6.03;;
14167;SDS011;7163;50.626;12.922;2024-03-25T23:58:51;9.53;;;5.80;;
